WetterOnline ( https://www.wetteronline.ch )

Wetter aktuell Hohe Warte (Wien)

Aktuelles Wetter: Wien / Hohe Warte (200m)

6-stündlich | Neueste Meldungen
Ortszeit Temperatur Wetter
Di, 02.06. 14:00 20.7° C wolkig
Di, 02.06. 8:00 17.1° C fast wolkenlos
Di, 02.06. 2:00 14.6° C wolkenlos
Mo, 01.06. 20:00 20.4° C leicht bewölkt
Mo, 01.06. 14:00 21.1° C wolkig
Mo, 01.06. 8:00 15.2° C fast wolkenlos
Mo, 01.06. 2:00 12.2° C bedeckt
So, 31.05. 20:00 10.5° C bedeckt
Ortszeit Temperatur Wetter
Di, 02.06. 19:00 18.1° C leicht bewölkt
Di, 02.06. 18:00 19.0° C leicht bewölkt
Di, 02.06. 17:00 20.7° C leicht bewölkt
Di, 02.06. 16:00 19.8° C leicht bewölkt
Di, 02.06. 15:00 17.0° C leichte Schauer
Di, 02.06. 14:00 20.7° C wolkig
Ortszeit Relative Feuchte Sichtweite
Di, 02.06. 14:00 40% 55 km
Di, 02.06. 8:00 47% 50 km
Di, 02.06. 2:00 52% 35 km
Mo, 01.06. 20:00 37% 55 km
Mo, 01.06. 14:00 52% 50 km
Mo, 01.06. 8:00 72% 35 km
Mo, 01.06. 2:00 83% 20 km
So, 31.05. 20:00 87% 30 km
Ortszeit Relative Feuchte Sichtweite
Di, 02.06. 19:00 54% 55 km
Di, 02.06. 18:00 49% 55 km
Di, 02.06. 17:00 44% 55 km
Di, 02.06. 16:00 48% 55 km
Di, 02.06. 15:00 67% 55 km
Di, 02.06. 14:00 40% 55 km
Ortszeit Niederschlagsmenge Niederschlagsart
Di, 02.06. 14:00 0.0 l/m2 in 24 Std. -
Di, 02.06. 8:00 0.0 l/m2 in 24 Std. -
Di, 02.06. 2:00 0.0 l/m2 in 24 Std. -
Mo, 01.06. 20:00 0.0 l/m2 in 24 Std. -
Mo, 01.06. 14:00 0.0 l/m2 in 24 Std. -
Mo, 01.06. 8:00 0.2 l/m2 in 12 Std. -
Mo, 01.06. 2:00 0.2 l/m2 in 6 Std. Regen
So, 31.05. 20:00 5 l/m2 in 12 Std. Regen
Ortszeit Niederschlagsmenge Niederschlagsart
Di, 02.06. 19:00 keine Meldung -
Di, 02.06. 18:00 keine Meldung -
Di, 02.06. 17:00 keine Meldung -
Di, 02.06. 16:00 0.1 l/m2 in 1 Std. Schauer
Di, 02.06. 15:00 0.7 l/m2 in 1 Std. Schauer
Di, 02.06. 14:00 keine Meldung -
Ortszeit Stärke Spitze Richtung
km/h Bft. km/h Grad Sektor
Di, 02.06. 14:00 22 4 50 350° N
Di, 02.06. 8:00 14 3 - 320° NW
Di, 02.06. 2:00 14 3 - 330° NW
Mo, 01.06. 20:00 14 3 - 350° N
Mo, 01.06. 14:00 18 3 - 300° NW
Mo, 01.06. 8:00 22 4 - 300° NW
Mo, 01.06. 2:00 25 4 - 300° NW
So, 31.05. 20:00 22 4 58 290° W
Ortszeit Stärke Spitze Richtung
km/h Bft. km/h Grad Sektor
Di, 02.06. 19:00 22 4 - 330° NW
Di, 02.06. 18:00 22 4 47 340° N
Di, 02.06. 17:00 22 4 58 340° N
Di, 02.06. 16:00 32 5 58 340° N
Di, 02.06. 15:00 25 4 58 10° N
Di, 02.06. 14:00 22 4 50 350° N
Ortszeit Untergrenze Bedeckung Gattung
total tief tief mittel hoch
Di, 02.06. 14:00 1500 m 6/8 6/8 Cu - -
Di, 02.06. 8:00 1500 m 1/8 1/8 Sc Ac -
Di, 02.06. 2:00 - 0/8 0/8 - - -
Mo, 01.06. 20:00 1260 m 3/8 2/8 Cu Ac -
Mo, 01.06. 14:00 930 m 6/8 2/8 Cu Ac -
Mo, 01.06. 8:00 960 m 1/8 1/8 Cu Ac -
Mo, 01.06. 2:00 1200 m 8/8 8/8 Sc - -
So, 31.05. 20:00 150 m 8/8 8/8 St - -
Ortszeit Bedeckungsgrad in Achtel und Wolkenuntergrenze
Di, 02.06. 19:00 1(1200m) 3(3000m)
Di, 02.06. 18:00 2(1200m) 3(3000m)
Di, 02.06. 17:00 3(1200m)
Di, 02.06. 16:00 3(1200m)
Di, 02.06. 15:00 3(1500m) 6(1800m)
Di, 02.06. 14:00 3(1500m) 5(2400m)
Ortszeit Luftdruck NN (hPa) Tendenz (hPa in 3 Std.)
Di, 02.06. 14:00 1014 - 0,8
Di, 02.06. 8:00 1016 - 0,2
Di, 02.06. 2:00 1018 - 0,1
Mo, 01.06. 20:00 1016 - 0,3
Mo, 01.06. 14:00 1018 - 1,1
Mo, 01.06. 8:00 1019 + 0,3
Mo, 01.06. 2:00 1019 + 0,4
So, 31.05. 20:00 1018 + 0,5
Ortszeit Luftdruck NN (hPa) Tendenz (hPa in 3 Std.)
Di, 02.06. 19:00 1012 - 1,5
Di, 02.06. 18:00 1012 - 1,6
Di, 02.06. 17:00 1012 - 1,1
Di, 02.06. 16:00 1013 - 0,7
Di, 02.06. 15:00 1014 - 0,5
Di, 02.06. 14:00 1014 - 0,8
Ortszeit Schneehöhe (cm)
Di, 02.06. 14:00 -
Di, 02.06. 8:00 -
Di, 02.06. 2:00 -
Mo, 01.06. 20:00 -
Mo, 01.06. 14:00 -
Mo, 01.06. 8:00 -
Mo, 01.06. 2:00 -
So, 31.05. 20:00 -
Ortszeit Schneehöhe (cm)
Di, 02.06. 19:00 -
Di, 02.06. 18:00 -
Di, 02.06. 17:00 -
Di, 02.06. 16:00 -
Di, 02.06. 15:00 -
Di, 02.06. 14:00 -
Link zu dieser Seite / Seite empfehlen

Das Wetter in ...